sensor_id;sensor_type;location;lat;lon;timestamp;P1;durP1;ratioP1;P2;durP2;ratioP2
51883;SDS011;37915;53.254;6.598;2022-09-19T00:01:20;17.25;;;3.22;;
51883;SDS011;37915;53.254;6.598;2022-09-19T00:03:50;14.18;;;3.10;;
51883;SDS011;37915;53.254;6.598;2022-09-19T00:06:18;13.10;;;2.60;;
51883;SDS011;37915;53.254;6.598;2022-09-19T00:08:44;17.10;;;2.58;;
51883;SDS011;37915;53.254;6.598;2022-09-19T00:11:11;17.20;;;3.25;;
51883;SDS011;37915;53.254;6.598;2022-09-19T00:13:40;20.95;;;3.38;;
51883;SDS011;37915;53.254;6.598;2022-09-19T00:16:16;14.32;;;3.10;;
51883;SDS011;37915;53.254;6.598;2022-09-19T00:18:48;12.95;;;2.65;;
51883;SDS011;37915;53.254;6.598;2022-09-19T00:21:37;10.32;;;2.95;;
51883;SDS011;37915;53.254;6.598;2022-09-19T00:24:13;11.48;;;3.00;;
51883;SDS011;37915;53.254;6.598;2022-09-19T00:26:59;14.88;;;2.97;;
51883;SDS011;37915;53.254;6.598;2022-09-19T00:29:27;15.43;;;2.72;;
51883;SDS011;37915;53.254;6.598;2022-09-19T00:31:53;13.00;;;2.75;;
51883;SDS011;37915;53.254;6.598;2022-09-19T00:34:19;13.35;;;2.97;;
51883;SDS011;37915;53.254;6.598;2022-09-19T00:36:45;15.82;;;2.50;;
51883;SDS011;37915;53.254;6.598;2022-09-19T00:39:12;18.95;;;3.90;;
51883;SDS011;37915;53.254;6.598;2022-09-19T00:41:41;16.08;;;3.13;;
51883;SDS011;37915;53.254;6.598;2022-09-19T00:47:11;19.33;;;2.83;;
51883;SDS011;37915;53.254;6.598;2022-09-19T00:49:37;16.10;;;2.90;;
51883;SDS011;37915;53.254;6.598;2022-09-19T00:52:16;18.42;;;3.45;;
51883;SDS011;37915;53.254;6.598;2022-09-19T00:54:51;10.18;;;3.20;;
51883;SDS011;37915;53.254;6.598;2022-09-19T00:57:17;9.75;;;2.67;;
51883;SDS011;37915;53.254;6.598;2022-09-19T00:59:45;15.30;;;3.08;;
51883;SDS011;37915;53.254;6.598;2022-09-19T01:02:13;14.15;;;2.88;;
51883;SDS011;37915;53.254;6.598;2022-09-19T01:04:44;11.65;;;2.47;;
51883;SDS011;37915;53.254;6.598;2022-09-19T01:10:40;12.98;;;2.63;;
51883;SDS011;37915;53.254;6.598;2022-09-19T01:18:54;10.70;;;2.67;;
51883;SDS011;37915;53.254;6.598;2022-09-19T01:24:09;16.27;;;3.47;;
51883;SDS011;37915;53.254;6.598;2022-09-19T01:32:29;12.73;;;2.92;;
51883;SDS011;37915;53.254;6.598;2022-09-19T01:34:59;18.48;;;3.03;;
51883;SDS011;37915;53.254;6.598;2022-09-19T01:37:32;13.50;;;3.40;;
51883;SDS011;37915;53.254;6.598;2022-09-19T01:40:02;9.75;;;2.92;;
51883;SDS011;37915;53.254;6.598;2022-09-19T01:42:30;9.85;;;2.10;;
51883;SDS011;37915;53.254;6.598;2022-09-19T01:44:56;11.75;;;2.90;;
51883;SDS011;37915;53.254;6.598;2022-09-19T01:55:55;11.77;;;2.42;;
51883;SDS011;37915;53.254;6.598;2022-09-19T02:01:18;12.65;;;2.40;;
51883;SDS011;37915;53.254;6.598;2022-09-19T02:03:50;12.18;;;3.22;;
51883;SDS011;37915;53.254;6.598;2022-09-19T02:06:25;11.93;;;2.38;;
51883;SDS011;37915;53.254;6.598;2022-09-19T02:09:06;14.00;;;3.47;;
51883;SDS011;37915;53.254;6.598;2022-09-19T02:11:37;18.38;;;3.05;;
51883;SDS011;37915;53.254;6.598;2022-09-19T02:14:04;13.25;;;2.67;;
51883;SDS011;37915;53.254;6.598;2022-09-19T02:17:09;11.75;;;2.53;;
51883;SDS011;37915;53.254;6.598;2022-09-19T02:19:33;11.20;;;2.53;;
51883;SDS011;37915;53.254;6.598;2022-09-19T02:24:34;9.98;;;2.45;;
51883;SDS011;37915;53.254;6.598;2022-09-19T02:27:04;11.38;;;2.50;;
51883;SDS011;37915;53.254;6.598;2022-09-19T02:29:42;13.55;;;2.50;;
51883;SDS011;37915;53.254;6.598;2022-09-19T02:32:11;11.50;;;2.50;;
51883;SDS011;37915;53.254;6.598;2022-09-19T02:34:37;11.35;;;2.50;;
51883;SDS011;37915;53.254;6.598;2022-09-19T02:40:05;7.15;;;1.40;;
51883;SDS011;37915;53.254;6.598;2022-09-19T02:45:47;7.95;;;1.77;;
51883;SDS011;37915;53.254;6.598;2022-09-19T02:48:53;12.38;;;2.08;;
51883;SDS011;37915;53.254;6.598;2022-09-19T02:54:02;15.10;;;2.45;;
51883;SDS011;37915;53.254;6.598;2022-09-19T02:56:33;12.07;;;2.17;;
51883;SDS011;37915;53.254;6.598;2022-09-19T02:59:06;13.52;;;2.55;;
51883;SDS011;37915;53.254;6.598;2022-09-19T03:01:35;11.32;;;2.50;;
51883;SDS011;37915;53.254;6.598;2022-09-19T03:04:09;12.52;;;2.00;;
51883;SDS011;37915;53.254;6.598;2022-09-19T03:09:28;8.07;;;1.70;;
51883;SDS011;37915;53.254;6.598;2022-09-19T03:11:57;9.10;;;1.73;;
51883;SDS011;37915;53.254;6.598;2022-09-19T03:14:44;13.25;;;2.40;;
51883;SDS011;37915;53.254;6.598;2022-09-19T03:17:12;11.43;;;2.45;;
51883;SDS011;37915;53.254;6.598;2022-09-19T03:19:44;11.38;;;2.50;;
51883;SDS011;37915;53.254;6.598;2022-09-19T03:22:11;14.93;;;2.30;;
51883;SDS011;37915;53.254;6.598;2022-09-19T03:24:37;10.90;;;2.30;;
51883;SDS011;37915;53.254;6.598;2022-09-19T03:27:03;14.02;;;2.78;;
51883;SDS011;37915;53.254;6.598;2022-09-19T03:29:30;19.10;;;3.35;;
51883;SDS011;37915;53.254;6.598;2022-09-19T03:31:56;9.30;;;2.38;;
51883;SDS011;37915;53.254;6.598;2022-09-19T03:34:22;13.43;;;2.70;;
51883;SDS011;37915;53.254;6.598;2022-09-19T03:36:47;15.68;;;2.42;;
51883;SDS011;37915;53.254;6.598;2022-09-19T03:39:13;19.70;;;2.67;;
51883;SDS011;37915;53.254;6.598;2022-09-19T03:41:39;11.75;;;2.45;;
51883;SDS011;37915;53.254;6.598;2022-09-19T03:44:05;14.55;;;2.83;;
51883;SDS011;37915;53.254;6.598;2022-09-19T03:46:32;14.38;;;2.47;;
51883;SDS011;37915;53.254;6.598;2022-09-19T03:48:58;12.73;;;2.95;;
51883;SDS011;37915;53.254;6.598;2022-09-19T03:51:25;14.32;;;2.63;;
51883;SDS011;37915;53.254;6.598;2022-09-19T03:53:52;13.35;;;3.20;;
51883;SDS011;37915;53.254;6.598;2022-09-19T03:56:17;16.02;;;3.08;;
51883;SDS011;37915;53.254;6.598;2022-09-19T03:58:43;14.73;;;3.00;;
51883;SDS011;37915;53.254;6.598;2022-09-19T04:01:10;18.35;;;3.00;;
51883;SDS011;37915;53.254;6.598;2022-09-19T04:03:40;14.65;;;2.55;;
51883;SDS011;37915;53.254;6.598;2022-09-19T04:06:07;15.95;;;3.42;;
51883;SDS011;37915;53.254;6.598;2022-09-19T04:08:34;16.88;;;3.00;;
51883;SDS011;37915;53.254;6.598;2022-09-19T04:10:59;14.88;;;2.85;;
51883;SDS011;37915;53.254;6.598;2022-09-19T04:13:25;14.93;;;2.40;;
51883;SDS011;37915;53.254;6.598;2022-09-19T04:15:52;8.93;;;2.47;;
51883;SDS011;37915;53.254;6.598;2022-09-19T04:18:19;12.43;;;2.70;;
51883;SDS011;37915;53.254;6.598;2022-09-19T04:20:45;11.73;;;2.42;;
51883;SDS011;37915;53.254;6.598;2022-09-19T04:23:12;11.90;;;2.75;;
51883;SDS011;37915;53.254;6.598;2022-09-19T04:25:41;14.00;;;2.15;;
51883;SDS011;37915;53.254;6.598;2022-09-19T04:28:09;13.50;;;2.10;;
51883;SDS011;37915;53.254;6.598;2022-09-19T04:30:37;13.13;;;2.35;;
51883;SDS011;37915;53.254;6.598;2022-09-19T04:33:06;9.27;;;2.03;;
51883;SDS011;37915;53.254;6.598;2022-09-19T04:35:33;9.85;;;3.13;;
51883;SDS011;37915;53.254;6.598;2022-09-19T04:38:10;12.30;;;3.10;;
51883;SDS011;37915;53.254;6.598;2022-09-19T04:40:42;15.10;;;2.80;;
51883;SDS011;37915;53.254;6.598;2022-09-19T04:43:12;13.32;;;2.58;;
51883;SDS011;37915;53.254;6.598;2022-09-19T04:45:39;15.73;;;3.03;;
51883;SDS011;37915;53.254;6.598;2022-09-19T04:48:08;14.35;;;2.60;;
51883;SDS011;37915;53.254;6.598;2022-09-19T04:50:34;23.27;;;4.05;;
51883;SDS011;37915;53.254;6.598;2022-09-19T04:53:00;14.93;;;3.08;;
51883;SDS011;37915;53.254;6.598;2022-09-19T04:55:27;11.40;;;2.70;;
51883;SDS011;37915;53.254;6.598;2022-09-19T04:57:53;14.65;;;2.60;;
51883;SDS011;37915;53.254;6.598;2022-09-19T05:00:22;15.80;;;3.70;;
51883;SDS011;37915;53.254;6.598;2022-09-19T05:03:05;15.48;;;3.20;;
51883;SDS011;37915;53.254;6.598;2022-09-19T05:05:37;16.05;;;2.85;;
51883;SDS011;37915;53.254;6.598;2022-09-19T05:08:09;22.67;;;3.50;;
51883;SDS011;37915;53.254;6.598;2022-09-19T05:10:37;15.73;;;2.95;;
51883;SDS011;37915;53.254;6.598;2022-09-19T05:13:03;10.23;;;2.17;;
51883;SDS011;37915;53.254;6.598;2022-09-19T05:15:29;13.52;;;3.25;;
51883;SDS011;37915;53.254;6.598;2022-09-19T05:17:54;15.65;;;2.92;;
51883;SDS011;37915;53.254;6.598;2022-09-19T05:20:21;19.50;;;3.92;;
51883;SDS011;37915;53.254;6.598;2022-09-19T05:22:55;11.50;;;2.45;;
51883;SDS011;37915;53.254;6.598;2022-09-19T05:25:25;14.63;;;2.88;;
51883;SDS011;37915;53.254;6.598;2022-09-19T05:27:52;14.55;;;2.70;;
51883;SDS011;37915;53.254;6.598;2022-09-19T05:30:19;15.63;;;2.22;;
51883;SDS011;37915;53.254;6.598;2022-09-19T05:32:52;14.07;;;2.88;;
51883;SDS011;37915;53.254;6.598;2022-09-19T05:35:19;14.68;;;3.65;;
51883;SDS011;37915;53.254;6.598;2022-09-19T05:37:45;10.73;;;2.88;;
51883;SDS011;37915;53.254;6.598;2022-09-19T05:40:12;14.65;;;2.78;;
51883;SDS011;37915;53.254;6.598;2022-09-19T05:42:41;20.20;;;3.10;;
51883;SDS011;37915;53.254;6.598;2022-09-19T05:45:10;10.57;;;2.63;;
51883;SDS011;37915;53.254;6.598;2022-09-19T05:47:36;14.68;;;2.80;;
51883;SDS011;37915;53.254;6.598;2022-09-19T05:50:11;14.65;;;3.10;;
51883;SDS011;37915;53.254;6.598;2022-09-19T05:52:40;15.23;;;2.63;;
51883;SDS011;37915;53.254;6.598;2022-09-19T05:55:25;17.58;;;3.15;;
51883;SDS011;37915;53.254;6.598;2022-09-19T05:57:52;12.10;;;3.40;;
51883;SDS011;37915;53.254;6.598;2022-09-19T06:00:20;15.40;;;3.78;;
51883;SDS011;37915;53.254;6.598;2022-09-19T06:02:53;13.93;;;2.90;;
51883;SDS011;37915;53.254;6.598;2022-09-19T06:05:19;17.60;;;2.63;;
51883;SDS011;37915;53.254;6.598;2022-09-19T06:07:45;17.10;;;2.92;;
51883;SDS011;37915;53.254;6.598;2022-09-19T06:10:11;12.90;;;3.35;;
51883;SDS011;37915;53.254;6.598;2022-09-19T06:12:38;13.82;;;3.17;;
51883;SDS011;37915;53.254;6.598;2022-09-19T06:15:04;13.55;;;3.17;;
51883;SDS011;37915;53.254;6.598;2022-09-19T06:17:30;15.25;;;3.30;;
51883;SDS011;37915;53.254;6.598;2022-09-19T06:19:55;12.15;;;2.55;;
51883;SDS011;37915;53.254;6.598;2022-09-19T06:22:21;15.07;;;3.42;;
51883;SDS011;37915;53.254;6.598;2022-09-19T06:24:47;15.18;;;2.50;;
51883;SDS011;37915;53.254;6.598;2022-09-19T06:27:13;11.07;;;2.42;;
51883;SDS011;37915;53.254;6.598;2022-09-19T06:29:38;11.93;;;2.88;;
51883;SDS011;37915;53.254;6.598;2022-09-19T06:32:04;12.07;;;1.90;;
51883;SDS011;37915;53.254;6.598;2022-09-19T06:34:30;14.65;;;2.70;;
51883;SDS011;37915;53.254;6.598;2022-09-19T06:36:56;8.43;;;2.30;;
51883;SDS011;37915;53.254;6.598;2022-09-19T06:39:21;11.75;;;2.50;;
51883;SDS011;37915;53.254;6.598;2022-09-19T06:41:47;16.27;;;3.03;;
51883;SDS011;37915;53.254;6.598;2022-09-19T06:44:13;11.02;;;2.65;;
51883;SDS011;37915;53.254;6.598;2022-09-19T06:46:39;15.60;;;2.67;;
51883;SDS011;37915;53.254;6.598;2022-09-19T06:49:05;13.52;;;2.97;;
51883;SDS011;37915;53.254;6.598;2022-09-19T06:51:32;13.55;;;2.72;;
51883;SDS011;37915;53.254;6.598;2022-09-19T06:53:59;13.88;;;2.92;;
51883;SDS011;37915;53.254;6.598;2022-09-19T06:56:25;11.85;;;2.85;;
51883;SDS011;37915;53.254;6.598;2022-09-19T06:58:51;12.20;;;2.80;;
51883;SDS011;37915;53.254;6.598;2022-09-19T07:01:17;13.27;;;2.50;;
51883;SDS011;37915;53.254;6.598;2022-09-19T07:03:42;13.75;;;2.85;;
51883;SDS011;37915;53.254;6.598;2022-09-19T07:06:08;20.55;;;3.10;;
51883;SDS011;37915;53.254;6.598;2022-09-19T07:08:34;16.92;;;3.08;;
51883;SDS011;37915;53.254;6.598;2022-09-19T07:11:00;10.30;;;2.75;;
51883;SDS011;37915;53.254;6.598;2022-09-19T07:13:26;10.35;;;2.58;;
51883;SDS011;37915;53.254;6.598;2022-09-19T07:15:52;12.80;;;3.00;;
51883;SDS011;37915;53.254;6.598;2022-09-19T07:18:17;16.65;;;2.63;;
51883;SDS011;37915;53.254;6.598;2022-09-19T07:20:43;20.65;;;3.33;;
51883;SDS011;37915;53.254;6.598;2022-09-19T07:23:14;13.88;;;2.65;;
51883;SDS011;37915;53.254;6.598;2022-09-19T07:25:41;11.68;;;2.50;;
51883;SDS011;37915;53.254;6.598;2022-09-19T07:28:12;13.45;;;2.58;;
51883;SDS011;37915;53.254;6.598;2022-09-19T07:30:40;6.88;;;2.20;;
51883;SDS011;37915;53.254;6.598;2022-09-19T07:33:09;12.35;;;2.65;;
51883;SDS011;37915;53.254;6.598;2022-09-19T07:35:37;9.13;;;3.22;;
51883;SDS011;37915;53.254;6.598;2022-09-19T07:38:06;10.65;;;3.15;;
51883;SDS011;37915;53.254;6.598;2022-09-19T07:40:36;15.07;;;3.10;;
51883;SDS011;37915;53.254;6.598;2022-09-19T07:43:02;15.52;;;2.88;;
51883;SDS011;37915;53.254;6.598;2022-09-19T07:45:31;13.38;;;2.85;;
51883;SDS011;37915;53.254;6.598;2022-09-19T07:47:57;12.00;;;2.83;;
51883;SDS011;37915;53.254;6.598;2022-09-19T07:50:23;17.30;;;3.50;;
51883;SDS011;37915;53.254;6.598;2022-09-19T07:53:32;22.15;;;2.83;;
51883;SDS011;37915;53.254;6.598;2022-09-19T07:55:39;13.27;;;2.63;;
51883;SDS011;37915;53.254;6.598;2022-09-19T07:58:09;16.08;;;3.50;;
51883;SDS011;37915;53.254;6.598;2022-09-19T08:00:37;15.40;;;2.85;;
51883;SDS011;37915;53.254;6.598;2022-09-19T08:03:04;15.27;;;2.97;;
51883;SDS011;37915;53.254;6.598;2022-09-19T08:05:34;13.32;;;3.00;;
51883;SDS011;37915;53.254;6.598;2022-09-19T08:08:02;12.45;;;2.78;;
51883;SDS011;37915;53.254;6.598;2022-09-19T08:10:32;13.95;;;3.15;;
51883;SDS011;37915;53.254;6.598;2022-09-19T08:13:04;11.43;;;2.88;;
51883;SDS011;37915;53.254;6.598;2022-09-19T08:15:32;13.02;;;3.30;;
51883;SDS011;37915;53.254;6.598;2022-09-19T08:20:35;17.42;;;3.10;;
51883;SDS011;37915;53.254;6.598;2022-09-19T08:23:05;12.13;;;2.83;;
51883;SDS011;37915;53.254;6.598;2022-09-19T08:25:36;13.93;;;3.00;;
51883;SDS011;37915;53.254;6.598;2022-09-19T08:28:04;14.30;;;3.22;;
51883;SDS011;37915;53.254;6.598;2022-09-19T08:30:30;12.55;;;2.60;;
51883;SDS011;37915;53.254;6.598;2022-09-19T08:32:58;11.00;;;2.80;;
51883;SDS011;37915;53.254;6.598;2022-09-19T08:35:25;16.08;;;3.33;;
51883;SDS011;37915;53.254;6.598;2022-09-19T08:37:53;14.30;;;2.22;;
51883;SDS011;37915;53.254;6.598;2022-09-19T08:40:24;17.67;;;3.70;;
51883;SDS011;37915;53.254;6.598;2022-09-19T08:42:54;10.15;;;2.40;;
51883;SDS011;37915;53.254;6.598;2022-09-19T08:46:12;11.88;;;2.22;;
51883;SDS011;37915;53.254;6.598;2022-09-19T08:51:38;14.40;;;2.67;;
51883;SDS011;37915;53.254;6.598;2022-09-19T08:54:24;13.43;;;2.42;;
51883;SDS011;37915;53.254;6.598;2022-09-19T08:56:51;7.95;;;1.70;;
51883;SDS011;37915;53.254;6.598;2022-09-19T08:59:20;14.45;;;2.22;;
51883;SDS011;37915;53.254;6.598;2022-09-19T09:01:48;13.55;;;2.15;;
51883;SDS011;37915;53.254;6.598;2022-09-19T09:04:24;8.85;;;2.45;;
51883;SDS011;37915;53.254;6.598;2022-09-19T09:07:11;10.23;;;2.40;;
51883;SDS011;37915;53.254;6.598;2022-09-19T09:12:49;12.18;;;2.40;;
51883;SDS011;37915;53.254;6.598;2022-09-19T09:15:20;11.93;;;2.80;;
51883;SDS011;37915;53.254;6.598;2022-09-19T09:23:37;9.13;;;2.45;;
51883;SDS011;37915;53.254;6.598;2022-09-19T09:26:12;14.52;;;2.45;;
51883;SDS011;37915;53.254;6.598;2022-09-19T09:28:50;16.17;;;2.58;;
51883;SDS011;37915;53.254;6.598;2022-09-19T09:31:34;11.80;;;2.33;;
51883;SDS011;37915;53.254;6.598;2022-09-19T09:34:05;15.18;;;2.75;;
51883;SDS011;37915;53.254;6.598;2022-09-19T09:36:44;14.57;;;2.90;;
51883;SDS011;37915;53.254;6.598;2022-09-19T09:39:26;11.25;;;2.70;;
51883;SDS011;37915;53.254;6.598;2022-09-19T09:41:58;10.43;;;2.45;;
51883;SDS011;37915;53.254;6.598;2022-09-19T09:49:50;10.73;;;2.58;;
51883;SDS011;37915;53.254;6.598;2022-09-19T09:52:31;10.63;;;2.43;;
51883;SDS011;37915;53.254;6.598;2022-09-19T09:58:36;12.15;;;2.28;;
51883;SDS011;37915;53.254;6.598;2022-09-19T10:07:10;11.30;;;2.05;;
51883;SDS011;37915;53.254;6.598;2022-09-19T10:10:24;7.93;;;1.93;;
51883;SDS011;37915;53.254;6.598;2022-09-19T10:12:45;7.57;;;2.03;;
51883;SDS011;37915;53.254;6.598;2022-09-19T10:15:23;8.38;;;2.50;;
51883;SDS011;37915;53.254;6.598;2022-09-19T10:17:58;10.45;;;2.70;;
51883;SDS011;37915;53.254;6.598;2022-09-19T10:20:39;13.93;;;2.78;;
51883;SDS011;37915;53.254;6.598;2022-09-19T10:23:14;12.43;;;2.88;;
51883;SDS011;37915;53.254;6.598;2022-09-19T10:25:46;13.30;;;2.80;;
51883;SDS011;37915;53.254;6.598;2022-09-19T10:28:38;15.57;;;2.95;;
51883;SDS011;37915;53.254;6.598;2022-09-19T10:31:29;8.68;;;2.15;;
51883;SDS011;37915;53.254;6.598;2022-09-19T10:34:01;13.15;;;2.42;;
51883;SDS011;37915;53.254;6.598;2022-09-19T10:36:30;12.55;;;2.70;;
51883;SDS011;37915;53.254;6.598;2022-09-19T10:38:59;8.82;;;1.55;;
51883;SDS011;37915;53.254;6.598;2022-09-19T10:41:31;6.85;;;1.52;;
51883;SDS011;37915;53.254;6.598;2022-09-19T10:44:00;9.15;;;1.67;;
51883;SDS011;37915;53.254;6.598;2022-09-19T10:46:45;5.32;;;1.48;;
51883;SDS011;37915;53.254;6.598;2022-09-19T10:49:15;10.73;;;2.53;;
51883;SDS011;37915;53.254;6.598;2022-09-19T10:51:51;12.10;;;1.95;;
51883;SDS011;37915;53.254;6.598;2022-09-19T10:57:05;7.43;;;2.13;;
51883;SDS011;37915;53.254;6.598;2022-09-19T10:59:50;10.60;;;2.40;;
51883;SDS011;37915;53.254;6.598;2022-09-19T11:02:27;10.00;;;2.53;;
51883;SDS011;37915;53.254;6.598;2022-09-19T11:07:25;16.92;;;2.83;;
51883;SDS011;37915;53.254;6.598;2022-09-19T11:09:55;10.88;;;2.55;;
51883;SDS011;37915;53.254;6.598;2022-09-19T11:12:26;13.43;;;2.60;;
51883;SDS011;37915;53.254;6.598;2022-09-19T11:14:55;10.30;;;3.70;;
51883;SDS011;37915;53.254;6.598;2022-09-19T11:37:23;10.07;;;2.17;;
51883;SDS011;37915;53.254;6.598;2022-09-19T11:42:52;7.97;;;2.20;;
51883;SDS011;37915;53.254;6.598;2022-09-19T11:51:23;5.33;;;1.70;;
51883;SDS011;37915;53.254;6.598;2022-09-19T12:00:11;10.88;;;2.17;;
51883;SDS011;37915;53.254;6.598;2022-09-19T12:08:22;9.50;;;2.22;;
51883;SDS011;37915;53.254;6.598;2022-09-19T12:13:49;9.40;;;2.15;;
51883;SDS011;37915;53.254;6.598;2022-09-19T12:16:28;8.68;;;2.70;;
51883;SDS011;37915;53.254;6.598;2022-09-19T12:19:36;11.23;;;2.70;;
51883;SDS011;37915;53.254;6.598;2022-09-19T12:24:38;9.68;;;3.17;;
51883;SDS011;37915;53.254;6.598;2022-09-19T12:30:07;9.38;;;2.20;;
51883;SDS011;37915;53.254;6.598;2022-09-19T12:32:51;10.23;;;2.20;;
51883;SDS011;37915;53.254;6.598;2022-09-19T12:35:35;10.68;;;1.67;;
51883;SDS011;37915;53.254;6.598;2022-09-19T12:38:29;6.88;;;1.98;;
51883;SDS011;37915;53.254;6.598;2022-09-19T12:49:02;6.70;;;1.75;;
51883;SDS011;37915;53.254;6.598;2022-09-19T12:54:23;9.48;;;1.90;;
51883;SDS011;37915;53.254;6.598;2022-09-19T12:59:37;8.25;;;1.92;;
51883;SDS011;37915;53.254;6.598;2022-09-19T13:07:51;10.98;;;2.15;;
51883;SDS011;37915;53.254;6.598;2022-09-19T13:12:55;6.40;;;1.77;;
51883;SDS011;37915;53.254;6.598;2022-09-19T13:18:14;9.02;;;2.30;;
51883;SDS011;37915;53.254;6.598;2022-09-19T13:20:59;7.88;;;1.90;;
51883;SDS011;37915;53.254;6.598;2022-09-19T13:24:01;8.63;;;1.67;;
51883;SDS011;37915;53.254;6.598;2022-09-19T13:26:30;4.90;;;1.30;;
51883;SDS011;37915;53.254;6.598;2022-09-19T13:37:06;9.80;;;1.83;;
51883;SDS011;37915;53.254;6.598;2022-09-19T13:45:27;5.35;;;1.65;;
51883;SDS011;37915;53.254;6.598;2022-09-19T13:48:30;12.13;;;2.63;;
51883;SDS011;37915;53.254;6.598;2022-09-19T13:51:07;7.22;;;1.95;;
51883;SDS011;37915;53.254;6.598;2022-09-19T13:53:40;8.43;;;2.00;;
51883;SDS011;37915;53.254;6.598;2022-09-19T13:56:27;7.30;;;1.75;;
51883;SDS011;37915;53.254;6.598;2022-09-19T14:02:23;10.07;;;2.30;;
51883;SDS011;37915;53.254;6.598;2022-09-19T14:09:59;11.60;;;2.55;;
51883;SDS011;37915;53.254;6.598;2022-09-19T14:23:28;9.65;;;2.10;;
51883;SDS011;37915;53.254;6.598;2022-09-19T14:31:28;7.50;;;1.60;;
51883;SDS011;37915;53.254;6.598;2022-09-19T14:42:54;7.93;;;1.90;;
51883;SDS011;37915;53.254;6.598;2022-09-19T14:48:30;6.38;;;1.85;;
51883;SDS011;37915;53.254;6.598;2022-09-19T14:56:39;10.18;;;1.63;;
51883;SDS011;37915;53.254;6.598;2022-09-19T14:59:15;8.95;;;1.77;;
51883;SDS011;37915;53.254;6.598;2022-09-19T15:01:42;9.45;;;2.08;;
51883;SDS011;37915;53.254;6.598;2022-09-19T15:04:12;9.82;;;2.25;;
51883;SDS011;37915;53.254;6.598;2022-09-19T15:06:47;7.50;;;2.08;;
51883;SDS011;37915;53.254;6.598;2022-09-19T15:11:50;8.57;;;2.13;;
51883;SDS011;37915;53.254;6.598;2022-09-19T15:14:21;5.95;;;1.85;;
51883;SDS011;37915;53.254;6.598;2022-09-19T15:16:49;10.13;;;1.85;;
51883;SDS011;37915;53.254;6.598;2022-09-19T15:19:33;7.97;;;2.00;;
51883;SDS011;37915;53.254;6.598;2022-09-19T15:21:59;10.15;;;2.13;;
51883;SDS011;37915;53.254;6.598;2022-09-19T15:24:25;10.18;;;2.70;;
51883;SDS011;37915;53.254;6.598;2022-09-19T15:26:51;13.27;;;2.55;;
51883;SDS011;37915;53.254;6.598;2022-09-19T15:29:28;7.28;;;1.73;;
51883;SDS011;37915;53.254;6.598;2022-09-19T15:35:01;8.95;;;1.92;;
51883;SDS011;37915;53.254;6.598;2022-09-19T15:37:34;7.18;;;2.13;;
51883;SDS011;37915;53.254;6.598;2022-09-19T15:40:02;10.18;;;1.90;;
51883;SDS011;37915;53.254;6.598;2022-09-19T15:42:31;6.05;;;1.73;;
51883;SDS011;37915;53.254;6.598;2022-09-19T15:45:00;6.55;;;1.67;;
51883;SDS011;37915;53.254;6.598;2022-09-19T15:47:53;9.15;;;1.70;;
51883;SDS011;37915;53.254;6.598;2022-09-19T15:50:25;7.75;;;1.83;;
51883;SDS011;37915;53.254;6.598;2022-09-19T15:52:56;9.27;;;1.67;;
51883;SDS011;37915;53.254;6.598;2022-09-19T15:55:23;6.28;;;1.73;;
51883;SDS011;37915;53.254;6.598;2022-09-19T15:57:58;7.90;;;1.27;;
51883;SDS011;37915;53.254;6.598;2022-09-19T16:00:26;6.93;;;1.83;;
51883;SDS011;37915;53.254;6.598;2022-09-19T16:02:58;9.20;;;1.60;;
51883;SDS011;37915;53.254;6.598;2022-09-19T16:05:29;10.48;;;1.83;;
51883;SDS011;37915;53.254;6.598;2022-09-19T16:08:00;8.98;;;1.50;;
51883;SDS011;37915;53.254;6.598;2022-09-19T16:10:47;6.85;;;1.65;;
51883;SDS011;37915;53.254;6.598;2022-09-19T16:16:04;8.57;;;1.60;;
51883;SDS011;37915;53.254;6.598;2022-09-19T16:18:51;10.00;;;2.05;;
51883;SDS011;37915;53.254;6.598;2022-09-19T16:21:29;7.90;;;1.73;;
51883;SDS011;37915;53.254;6.598;2022-09-19T16:23:57;15.95;;;2.70;;
51883;SDS011;37915;53.254;6.598;2022-09-19T16:26:25;9.02;;;1.80;;
51883;SDS011;37915;53.254;6.598;2022-09-19T16:28:57;6.95;;;1.67;;
51883;SDS011;37915;53.254;6.598;2022-09-19T16:34:08;10.75;;;2.17;;
51883;SDS011;37915;53.254;6.598;2022-09-19T16:36:53;7.32;;;2.10;;
51883;SDS011;37915;53.254;6.598;2022-09-19T16:44:36;8.32;;;2.17;;
51883;SDS011;37915;53.254;6.598;2022-09-19T16:47:11;6.00;;;1.67;;
51883;SDS011;37915;53.254;6.598;2022-09-19T16:49:46;6.80;;;2.38;;
51883;SDS011;37915;53.254;6.598;2022-09-19T16:52:23;7.43;;;1.90;;
51883;SDS011;37915;53.254;6.598;2022-09-19T16:54:52;9.10;;;1.88;;
51883;SDS011;37915;53.254;6.598;2022-09-19T16:57:20;12.55;;;2.25;;
51883;SDS011;37915;53.254;6.598;2022-09-19T16:59:47;5.95;;;1.80;;
51883;SDS011;37915;53.254;6.598;2022-09-19T17:04:53;9.43;;;2.70;;
51883;SDS011;37915;53.254;6.598;2022-09-19T17:07:20;8.63;;;2.10;;
51883;SDS011;37915;53.254;6.598;2022-09-19T17:09:47;9.88;;;2.17;;
51883;SDS011;37915;53.254;6.598;2022-09-19T17:12:14;7.55;;;1.83;;
51883;SDS011;37915;53.254;6.598;2022-09-19T17:14:41;12.15;;;2.42;;
51883;SDS011;37915;53.254;6.598;2022-09-19T17:17:09;7.60;;;1.90;;
51883;SDS011;37915;53.254;6.598;2022-09-19T17:19:37;12.27;;;1.95;;
51883;SDS011;37915;53.254;6.598;2022-09-19T17:22:03;4.25;;;1.45;;
51883;SDS011;37915;53.254;6.598;2022-09-19T17:24:29;7.60;;;1.75;;
51883;SDS011;37915;53.254;6.598;2022-09-19T17:26:55;8.73;;;1.88;;
51883;SDS011;37915;53.254;6.598;2022-09-19T17:29:20;6.05;;;1.45;;
51883;SDS011;37915;53.254;6.598;2022-09-19T17:31:46;8.73;;;2.75;;
51883;SDS011;37915;53.254;6.598;2022-09-19T17:34:13;8.52;;;2.03;;
51883;SDS011;37915;53.254;6.598;2022-09-19T17:36:40;8.35;;;1.73;;
51883;SDS011;37915;53.254;6.598;2022-09-19T17:39:06;7.78;;;1.52;;
51883;SDS011;37915;53.254;6.598;2022-09-19T17:41:32;7.13;;;1.80;;
51883;SDS011;37915;53.254;6.598;2022-09-19T17:43:59;8.07;;;2.00;;
51883;SDS011;37915;53.254;6.598;2022-09-19T17:46:25;7.53;;;1.60;;
51883;SDS011;37915;53.254;6.598;2022-09-19T17:48:54;6.57;;;1.38;;
51883;SDS011;37915;53.254;6.598;2022-09-19T17:51:20;8.00;;;1.95;;
51883;SDS011;37915;53.254;6.598;2022-09-19T17:53:47;7.18;;;1.50;;
51883;SDS011;37915;53.254;6.598;2022-09-19T17:56:17;6.65;;;1.65;;
51883;SDS011;37915;53.254;6.598;2022-09-19T17:58:45;10.60;;;2.05;;
51883;SDS011;37915;53.254;6.598;2022-09-19T18:01:20;5.93;;;1.20;;
51883;SDS011;37915;53.254;6.598;2022-09-19T18:04:06;5.45;;;1.40;;
51883;SDS011;37915;53.254;6.598;2022-09-19T18:06:33;8.70;;;1.77;;
51883;SDS011;37915;53.254;6.598;2022-09-19T18:09:03;8.48;;;1.80;;
51883;SDS011;37915;53.254;6.598;2022-09-19T18:11:30;7.30;;;1.80;;
51883;SDS011;37915;53.254;6.598;2022-09-19T18:13:56;10.27;;;1.83;;
51883;SDS011;37915;53.254;6.598;2022-09-19T18:16:24;11.35;;;2.40;;
51883;SDS011;37915;53.254;6.598;2022-09-19T18:18:51;6.60;;;1.83;;
51883;SDS011;37915;53.254;6.598;2022-09-19T18:21:16;6.60;;;1.58;;
51883;SDS011;37915;53.254;6.598;2022-09-19T18:23:42;7.05;;;1.83;;
51883;SDS011;37915;53.254;6.598;2022-09-19T18:26:17;5.38;;;1.30;;
51883;SDS011;37915;53.254;6.598;2022-09-19T18:28:45;10.60;;;1.92;;
51883;SDS011;37915;53.254;6.598;2022-09-19T18:31:15;4.90;;;1.92;;
51883;SDS011;37915;53.254;6.598;2022-09-19T18:33:42;8.13;;;1.80;;
51883;SDS011;37915;53.254;6.598;2022-09-19T18:36:18;7.82;;;1.63;;
51883;SDS011;37915;53.254;6.598;2022-09-19T18:38:46;4.70;;;1.40;;
51883;SDS011;37915;53.254;6.598;2022-09-19T18:41:16;6.55;;;1.63;;
51883;SDS011;37915;53.254;6.598;2022-09-19T18:43:42;9.70;;;1.88;;
51883;SDS011;37915;53.254;6.598;2022-09-19T18:46:12;4.38;;;1.92;;
51883;SDS011;37915;53.254;6.598;2022-09-19T18:48:42;6.72;;;2.20;;
51883;SDS011;37915;53.254;6.598;2022-09-19T18:51:10;11.65;;;1.98;;